Time;durP1;ratioP1;P1;durP2;ratioP2;P2;SDS_P1;SDS_P2;PMS_P1;PMS_P2;Temp;Humidity;BMP_temperature;BMP_pressure;BME280_temperature;BME280_humidity;BME280_pressure;Samples;Min_cycle;Max_cycle;Signal;HPM_P1;HPM_P2
2024/01/22 00:01:04;;;;;;;9.02;3.15;;;6.90;99.90;;;;;;5195570;22;20015;-81
2024/01/22 00:03:05;;;;;;;6.22;2.75;;;6.90;99.90;;;;;;5193868;22;20058;-81
2024/01/22 00:05:06;;;;;;;9.25;2.60;;;6.90;99.90;;;;;;5195934;22;20043;-82
2024/01/22 00:07:07;;;;;;;7.68;3.38;;;6.80;99.90;;;;;;5193339;22;20023;-82
2024/01/22 00:09:08;;;;;;;13.63;3.70;;;6.80;99.90;;;;;;5193796;22;20023;-81
2024/01/22 00:11:11;;;;;;;7.38;2.80;;;6.90;99.90;;;;;;5195551;22;20026;-81
2024/01/22 00:13:11;;;;;;;4.45;2.33;;;6.90;99.90;;;;;;5193776;22;20034;-81
2024/01/22 00:15:12;;;;;;;10.02;3.13;;;6.90;99.90;;;;;;5195104;22;20024;-81
2024/01/22 00:17:14;;;;;;;5.22;1.90;;;6.90;99.90;;;;;;5193294;22;20045;-81
2024/01/22 00:19:15;;;;;;;6.10;2.33;;;;;;;;;;5225698;22;20015;-80
2024/01/22 00:21:17;;;;;;;6.80;2.75;;;6.90;99.90;;;;;;5219851;22;20087;-81
2024/01/22 00:23:17;;;;;;;7.63;2.80;;;6.90;99.90;;;;;;5247878;22;20042;-81
2024/01/22 00:25:19;;;;;;;8.40;2.83;;;7.10;99.90;;;;;;5247356;22;20021;-81
2024/01/22 00:27:20;;;;;;;4.03;2.38;;;7.90;99.90;;;;;;5247385;22;20015;-81
2024/01/22 00:29:20;;;;;;;11.63;2.80;;;7.40;99.90;;;;;;5221204;22;20327;-81
2024/01/22 00:31:21;;;;;;;6.80;2.80;;;7.10;99.90;;;;;;5247546;22;20011;-81
2024/01/22 00:33:22;;;;;;;16.40;4.95;;;7.10;99.90;;;;;;5193113;22;20024;-81
2024/01/22 00:35:24;;;;;;;5.10;3.20;;;7.30;99.90;;;;;;5219695;22;20027;-81
2024/01/22 00:37:24;;;;;;;2.92;2.00;;;7.00;99.90;;;;;;5247846;22;20019;-82
2024/01/22 00:39:26;;;;;;;8.20;2.47;;;;;;;;;;5246517;22;20011;-81
2024/01/22 00:41:27;;;;;;;5.55;2.35;;;7.20;99.90;;;;;;5246273;22;20021;-81
2024/01/22 00:43:29;;;;;;;8.23;2.95;;;7.20;99.90;;;;;;5218952;22;20468;-81
2024/01/22 00:45:29;;;;;;;6.40;2.67;;;7.10;99.90;;;;;;5218776;22;20465;-81
2024/01/22 00:47:30;;;;;;;4.00;2.42;;;;;;;;;;5246370;22;20076;-81
2024/01/22 00:49:31;;;;;;;8.52;2.67;;;7.20;99.90;;;;;;5245953;22;20444;-81
2024/01/22 00:51:33;;;;;;;4.35;2.50;;;7.20;99.90;;;;;;5246524;22;20012;-81
2024/01/22 00:53:34;;;;;;;7.43;2.70;;;7.40;99.90;;;;;;5246201;22;20027;-82
2024/01/22 00:55:35;;;;;;;8.80;2.72;;;7.20;99.90;;;;;;5246891;22;20023;-81
2024/01/22 00:57:38;;;;;;;5.00;2.67;;;7.20;99.90;;;;;;5247580;22;20019;-81
2024/01/22 00:59:39;;;;;;;9.60;3.38;;;7.80;99.90;;;;;;5219961;22;20082;-81
2024/01/22 01:01:40;;;;;;;5.22;3.08;;;7.30;99.90;;;;;;5247527;22;20014;-81
2024/01/22 01:03:41;;;;;;;7.25;2.65;;;7.20;99.90;;;;;;5220026;22;20060;-81
2024/01/22 01:05:41;;;;;;;5.05;2.83;;;7.30;99.90;;;;;;5247955;22;20437;-81
2024/01/22 01:07:42;;;;;;;7.10;2.88;;;7.20;99.90;;;;;;5247032;22;20022;-81
2024/01/22 01:09:44;;;;;;;7.78;2.72;;;7.60;99.90;;;;;;5193301;22;20050;-81
2024/01/22 01:11:44;;;;;;;5.07;2.60;;;7.20;99.90;;;;;;5246045;22;20015;-83
2024/01/22 01:13:45;;;;;;;5.13;2.38;;;7.20;99.90;;;;;;5245685;22;20089;-81
2024/01/22 01:15:46;;;;;;;6.05;3.10;;;7.20;99.90;;;;;;5246109;22;20441;-82
2024/01/22 01:17:47;;;;;;;7.68;2.67;;;7.30;99.90;;;;;;5218487;22;20019;-82
2024/01/22 01:19:49;;;;;;;7.70;2.42;;;7.60;99.90;;;;;;5218573;22;20543;-82
2024/01/22 01:21:51;;;;;;;7.57;2.67;;;7.50;99.90;;;;;;5246027;22;20014;-82
2024/01/22 01:23:53;;;;;;;5.32;2.33;;;7.30;99.90;;;;;;5245938;22;20018;-83
2024/01/22 01:25:53;;;;;;;9.15;3.55;;;7.60;99.90;;;;;;5245835;22;20018;-83
2024/01/22 01:27:54;;;;;;;5.00;2.60;;;7.40;99.90;;;;;;5247313;22;20093;-82
2024/01/22 01:29:56;;;;;;;6.13;2.42;;;7.30;99.90;;;;;;5247070;22;20010;-82
2024/01/22 01:31:57;;;;;;;5.90;2.80;;;7.30;99.90;;;;;;5218835;22;20405;-82
2024/01/22 01:33:57;;;;;;;5.90;2.45;;;7.40;99.90;;;;;;5246026;22;20045;-82
2024/01/22 01:35:59;;;;;;;5.85;2.92;;;7.40;99.90;;;;;;5193151;22;20027;-82
2024/01/22 01:38:01;;;;;;;6.10;2.72;;;7.90;99.90;;;;;;5218569;22;20027;-83
2024/01/22 01:40:03;;;;;;;7.78;2.30;;;7.60;99.90;;;;;;5218441;22;20471;-82
2024/01/22 01:42:04;;;;;;;6.68;3.00;;;6.90;99.90;;;;;;5217818;22;20027;-82
2024/01/22 01:44:05;;;;;;;4.53;2.00;;;7.70;99.90;;;;;;5244755;22;20026;-83
2024/01/22 01:46:06;;;;;;;4.68;1.95;;;7.70;99.90;;;;;;5245556;22;20064;-82
2024/01/22 01:48:08;;;;;;;6.25;2.25;;;7.70;99.90;;;;;;5246564;22;20391;-82
2024/01/22 01:50:10;;;;;;;5.13;2.63;;;7.70;99.90;;;;;;5246205;22;20060;-82
2024/01/22 01:52:12;;;;;;;5.38;2.35;;;6.90;99.90;;;;;;5218290;22;20019;-82
2024/01/22 01:54:12;;;;;;;4.15;2.30;;;7.80;99.90;;;;;;5245878;22;20107;-83
2024/01/22 01:56:14;;;;;;;4.53;2.22;;;7.80;99.90;;;;;;5245108;22;20030;-83
2024/01/22 01:58:18;;;;;;;5.55;2.33;;;7.80;99.90;;;;;;5218302;22;20047;-82
2024/01/22 02:00:19;;;;;;;4.25;2.97;;;7.90;99.90;;;;;;5245593;22;20015;-82
2024/01/22 02:02:20;;;;;;;4.60;2.47;;;8.00;99.90;;;;;;5218186;22;20037;-82
2024/01/22 02:04:20;;;;;;;6.03;2.35;;;8.20;99.90;;;;;;5218351;22;20093;-82
2024/01/22 02:06:21;;;;;;;4.60;1.45;;;8.10;99.90;;;;;;5217377;22;20019;-82
2024/01/22 02:08:22;;;;;;;4.80;2.70;;;8.80;99.90;;;;;;5246252;22;20089;-82
2024/01/22 02:10:23;;;;;;;6.25;2.40;;;8.10;99.90;;;;;;5245696;22;20014;-82
2024/01/22 02:12:23;;;;;;;6.43;2.38;;;8.20;99.90;;;;;;5245518;22;20018;-82
2024/01/22 02:14:24;;;;;;;6.13;2.75;;;8.50;99.90;;;;;;5245546;22;20011;-82
2024/01/22 02:16:25;;;;;;;6.05;3.22;;;8.10;99.90;;;;;;5218407;22;20024;-82
2024/01/22 02:18:26;;;;;;;6.43;2.60;;;8.10;99.90;;;;;;5218217;22;20440;-82
2024/01/22 02:20:27;;;;;;;11.93;2.70;;;8.10;99.90;;;;;;5244835;22;20023;-82
2024/01/22 02:22:28;;;;;;;4.20;2.20;;;8.10;99.90;;;;;;5245689;22;20021;-82
2024/01/22 02:24:29;;;;;;;4.07;2.50;;;8.20;99.90;;;;;;5245431;22;20334;-82
2024/01/22 02:26:29;;;;;;;5.35;1.85;;;8.10;99.90;;;;;;5246428;22;20541;-82
2024/01/22 02:28:31;;;;;;;6.43;2.42;;;8.00;99.90;;;;;;5219445;22;20038;-82
2024/01/22 02:30:32;;;;;;;4.90;2.28;;;8.10;99.90;;;;;;5244975;22;20057;-82
2024/01/22 02:32:32;;;;;;;3.40;2.25;;;8.10;99.90;;;;;;5245781;22;20022;-82
2024/01/22 02:34:34;;;;;;;4.72;2.67;;;7.30;99.90;;;;;;5192570;22;20020;-82
2024/01/22 02:36:34;;;;;;;11.85;3.00;;;8.20;99.90;;;;;;5245701;22;20015;-82
2024/01/22 02:38:35;;;;;;;4.68;2.83;;;8.50;99.90;;;;;;5217550;22;20090;-82
2024/01/22 02:40:36;;;;;;;4.50;2.05;;;8.40;99.90;;;;;;5245502;22;20094;-83
2024/01/22 02:42:36;;;;;;;7.72;2.67;;;8.40;99.90;;;;;;5244621;22;20043;-82
2024/01/22 02:44:37;;;;;;;7.65;2.60;;;8.40;99.90;;;;;;5218254;22;20485;-83
2024/01/22 02:46:38;;;;;;;3.97;1.88;;;8.30;99.90;;;;;;5245752;22;20071;-82
2024/01/22 02:48:40;;;;;;;4.22;2.08;;;8.70;99.90;;;;;;5219383;22;20038;-82
2024/01/22 02:50:40;;;;;;;3.38;2.03;;;8.60;99.90;;;;;;5218861;22;20031;-82
2024/01/22 02:52:42;;;;;;;3.28;1.30;;;8.70;99.90;;;;;;5246140;22;20023;-81
2024/01/22 02:54:43;;;;;;;4.72;2.00;;;8.50;99.90;;;;;;5245854;22;20025;-82
2024/01/22 02:56:44;;;;;;;6.78;1.92;;;8.70;99.90;;;;;;5245216;22;20011;-82
2024/01/22 02:58:44;;;;;;;5.82;2.38;;;8.50;99.90;;;;;;5245000;22;20007;-82
2024/01/22 03:00:45;;;;;;;8.35;2.33;;;8.50;99.90;;;;;;5245013;22;20304;-82
2024/01/22 03:02:46;;;;;;;6.50;2.47;;;8.50;99.90;;;;;;5217477;22;20047;-82
2024/01/22 03:04:47;;;;;;;5.47;1.92;;;8.50;99.90;;;;;;5245344;22;20526;-82
2024/01/22 03:06:47;;;;;;;7.40;2.38;;;9.10;99.90;;;;;;5245326;22;20433;-82
2024/01/22 03:08:48;;;;;;;5.32;1.95;;;8.60;99.90;;;;;;5217006;22;20023;-82
2024/01/22 03:10:49;;;;;;;3.25;1.67;;;8.60;99.90;;;;;;5217673;22;20023;-82
2024/01/22 03:12:49;;;;;;;6.30;1.83;;;9.00;99.90;;;;;;5192762;22;20077;-82
2024/01/22 03:14:50;;;;;;;3.55;2.40;;;8.40;99.90;;;;;;5219037;22;20474;-83
2024/01/22 03:16:51;;;;;;;5.07;1.13;;;8.60;99.90;;;;;;5246411;22;20021;-81
2024/01/22 03:18:53;;;;;;;3.42;1.65;;;8.50;99.90;;;;;;5246409;22;20015;-82
2024/01/22 03:20:53;;;;;;;2.53;1.23;;;9.00;99.90;;;;;;5246580;22;20472;-81
2024/01/22 03:22:54;;;;;;;6.35;2.33;;;8.50;99.90;;;;;;5246089;22;20077;-82
2024/01/22 03:24:55;;;;;;;4.20;2.05;;;8.60;99.90;;;;;;5218804;22;20464;-81
2024/01/22 03:26:55;;;;;;;5.75;1.90;;;8.50;99.90;;;;;;5247688;22;20011;-81
2024/01/22 03:28:56;;;;;;;3.25;2.00;;;7.90;99.90;;;;;;5248163;22;20046;-81
2024/01/22 03:30:57;;;;;;;3.65;1.83;;;8.50;99.90;;;;;;5248575;22;20013;-82
2024/01/22 03:32:58;;;;;;;4.80;1.98;;;8.50;99.90;;;;;;5220366;22;20112;-81
2024/01/22 03:34:59;;;;;;;4.60;2.15;;;8.50;99.90;;;;;;5221596;22;20019;-81
2024/01/22 03:37:01;;;;;;;3.90;2.08;;;8.40;99.90;;;;;;5220618;22;20029;-81
2024/01/22 03:39:02;;;;;;;6.38;2.25;;;8.40;99.90;;;;;;5248058;22;20430;-81
2024/01/22 03:41:02;;;;;;;6.53;2.42;;;8.40;99.90;;;;;;5248250;22;20019;-81
2024/01/22 03:43:03;;;;;;;3.40;1.73;;;8.40;99.90;;;;;;5247898;22;20015;-81
2024/01/22 03:45:04;;;;;;;6.22;2.47;;;8.40;99.90;;;;;;5247951;22;20396;-82
2024/01/22 03:47:05;;;;;;;5.95;2.50;;;8.50;99.90;;;;;;5247268;22;20464;-82
2024/01/22 03:49:06;;;;;;;3.97;1.77;;;8.30;99.90;;;;;;5247834;22;20067;-81
2024/01/22 03:51:07;;;;;;;3.17;2.13;;;8.40;99.90;;;;;;5219924;22;20077;-81
2024/01/22 03:53:07;;;;;;;4.22;2.00;;;8.40;99.90;;;;;;5248007;22;20390;-81
2024/01/22 03:55:09;;;;;;;3.05;2.03;;;8.60;99.90;;;;;;5219976;22;20026;-81
2024/01/22 03:57:10;;;;;;;3.92;1.58;;;8.40;99.90;;;;;;5220456;22;20015;-81
2024/01/22 03:59:11;;;;;;;7.90;2.22;;;8.40;99.90;;;;;;5247606;22;20495;-81
2024/01/22 04:01:21;;;;;;;4.53;1.52;;;8.70;99.90;;;;;;5218990;22;20015;-81
2024/01/22 04:03:23;;;;;;;3.42;1.35;;;8.40;99.90;;;;;;5254944;22;20349;-82
2024/01/22 04:05:23;;;;;;;3.60;1.48;;;8.40;99.90;;;;;;5219584;22;20062;-81
2024/01/22 04:07:24;;;;;;;3.53;1.92;;;8.40;99.90;;;;;;5246138;22;20019;-81
2024/01/22 04:09:25;;;;;;;2.35;1.25;;;8.40;99.90;;;;;;5246652;22;20341;-81
2024/01/22 04:11:26;;;;;;;2.55;1.60;;;8.70;99.90;;;;;;5246024;22;20014;-81
2024/01/22 04:13:27;;;;;;;5.15;1.55;;;8.50;99.90;;;;;;5246520;22;20011;-81
2024/01/22 04:15:29;;;;;;;3.28;1.20;;;8.50;99.90;;;;;;5247342;22;20015;-81
2024/01/22 04:17:29;;;;;;;4.28;1.50;;;8.90;99.90;;;;;;5220337;22;20084;-81
2024/01/22 04:19:30;;;;;;;2.33;1.60;;;;;;;;;;5218470;22;20432;-81
2024/01/22 04:21:31;;;;;;;3.13;1.15;;;8.60;99.90;;;;;;5246386;22;20023;-81
2024/01/22 04:23:34;;;;;;;3.00;1.30;;;8.60;99.90;;;;;;5245876;22;20021;-81
2024/01/22 04:25:36;;;;;;;4.45;1.58;;;8.70;99.90;;;;;;5246310;22;20067;-82
2024/01/22 04:27:37;;;;;;;3.63;1.35;;;8.60;99.90;;;;;;5246252;22;20014;-81
2024/01/22 04:29:38;;;;;;;2.22;1.75;;;8.70;99.90;;;;;;5193274;22;20429;-81
2024/01/22 04:31:38;;;;;;;1.90;1.17;;;8.80;99.90;;;;;;5246628;22;20342;-81
2024/01/22 04:33:43;;;;;;;3.00;1.63;;;8.80;99.90;;;;;;5245990;22;20022;-81
2024/01/22 04:35:44;;;;;;;2.83;1.40;;;8.80;99.90;;;;;;5246374;22;20445;-81
2024/01/22 04:37:45;;;;;;;1.83;1.27;;;8.80;99.90;;;;;;5245771;22;20015;-81
2024/01/22 04:39:46;;;;;;;1.95;1.35;;;8.90;99.90;;;;;;5246273;22;20026;-81
2024/01/22 04:41:47;;;;;;;2.80;1.20;;;8.80;99.90;;;;;;5246029;22;20094;-81
2024/01/22 04:43:48;;;;;;;3.92;1.50;;;8.90;99.90;;;;;;5219229;22;20106;-81
2024/01/22 04:45:49;;;;;;;2.88;1.10;;;8.80;99.90;;;;;;5192809;22;20019;-81
2024/01/22 04:47:50;;;;;;;2.55;1.10;;;8.90;99.90;;;;;;5245525;22;20015;-81
2024/01/22 04:49:50;;;;;;;1.45;0.95;;;9.00;99.90;;;;;;5245525;22;20073;-81
2024/01/22 04:51:51;;;;;;;2.50;1.38;;;9.00;99.90;;;;;;5246206;22;20018;-81
2024/01/22 04:53:52;;;;;;;1.77;1.25;;;9.00;99.90;;;;;;5218624;22;20027;-81
2024/01/22 04:55:54;;;;;;;2.53;0.88;;;9.10;99.90;;;;;;5245542;22;20049;-81
2024/01/22 04:57:54;;;;;;;2.40;1.30;;;9.10;99.90;;;;;;5245899;22;20015;-82
2024/01/22 04:59:55;;;;;;;1.85;0.80;;;9.00;99.90;;;;;;5218694;22;20025;-81
2024/01/22 05:01:56;;;;;;;2.70;1.10;;;9.10;99.90;;;;;;5219687;22;20130;-82
2024/01/22 05:03:57;;;;;;;1.85;1.00;;;9.10;99.90;;;;;;5247358;22;20086;-81
2024/01/22 05:05:57;;;;;;;2.90;1.02;;;9.10;99.90;;;;;;5192782;22;20024;-81
2024/01/22 05:07:59;;;;;;;1.42;1.17;;;9.10;99.90;;;;;;5245413;22;20019;-81
2024/01/22 05:10:04;;;;;;;2.40;1.48;;;9.20;99.90;;;;;;5218312;22;20465;-81
2024/01/22 05:12:05;;;;;;;3.42;1.30;;;9.20;99.90;;;;;;5246014;22;20436;-81
2024/01/22 05:14:06;;;;;;;1.60;1.20;;;9.20;99.90;;;;;;5246017;22;20026;-81
2024/01/22 05:16:07;;;;;;;1.13;0.70;;;9.20;99.90;;;;;;5245502;22;20046;-81
2024/01/22 05:18:07;;;;;;;2.47;1.30;;;9.20;99.90;;;;;;5245134;22;20021;-81
2024/01/22 05:20:09;;;;;;;1.67;1.00;;;9.20;99.90;;;;;;5246307;22;20445;-81
2024/01/22 05:22:10;;;;;;;2.10;1.17;;;;;;;;;;5192954;22;20385;-81
2024/01/22 05:24:11;;;;;;;2.20;1.13;;;9.30;99.90;;;;;;5245701;22;20014;-81
2024/01/22 05:26:12;;;;;;;2.95;1.63;;;8.50;99.90;;;;;;5245884;22;20326;-81
2024/01/22 05:28:12;;;;;;;2.13;1.38;;;9.40;99.90;;;;;;5245687;22;20087;-81
2024/01/22 05:30:14;;;;;;;1.40;1.02;;;9.40;99.90;;;;;;5245083;22;20487;-81
2024/01/22 05:32:14;;;;;;;4.00;1.10;;;9.40;99.90;;;;;;5218218;22;20027;-81
2024/01/22 05:34:15;;;;;;;1.98;1.08;;;9.50;99.90;;;;;;5245839;22;20383;-81
2024/01/22 05:36:16;;;;;;;2.25;0.70;;;9.50;99.90;;;;;;5217810;22;20124;-81
2024/01/22 05:38:16;;;;;;;1.00;0.80;;;9.50;99.90;;;;;;5217956;22;20396;-81
2024/01/22 05:40:17;;;;;;;1.73;0.88;;;9.60;99.90;;;;;;5245101;22;20018;-81
2024/01/22 05:42:18;;;;;;;3.95;0.68;;;9.60;99.90;;;;;;5245840;22;20476;-81
2024/01/22 05:44:19;;;;;;;2.28;0.82;;;9.80;99.90;;;;;;5192508;22;20023;-82
2024/01/22 05:46:20;;;;;;;0.70;0.70;;;9.80;99.90;;;;;;5245398;22;20099;-81
2024/01/22 05:48:20;;;;;;;1.73;0.95;;;9.80;99.90;;;;;;5245430;22;20377;-81
2024/01/22 05:50:21;;;;;;;0.70;0.50;;;9.90;99.90;;;;;;5245640;22;20060;-81
2024/01/22 05:52:22;;;;;;;2.25;0.70;;;9.90;99.90;;;;;;5217567;22;20019;-81
2024/01/22 05:54:23;;;;;;;1.20;1.05;;;9.90;99.90;;;;;;5245627;22;20017;-81
2024/01/22 05:56:25;;;;;;;1.77;0.85;;;10.00;99.90;;;;;;5246419;22;20019;-81
2024/01/22 05:58:26;;;;;;;2.15;0.57;;;10.00;99.90;;;;;;5246199;22;20018;-81
2024/01/22 06:00:26;;;;;;;2.65;0.85;;;10.10;99.90;;;;;;5245466;22;20090;-81
2024/01/22 06:02:29;;;;;;;0.88;0.40;;;10.10;99.90;;;;;;5246486;22;20067;-81
2024/01/22 06:04:29;;;;;;;1.33;0.52;;;10.10;99.90;;;;;;5217914;22;20500;-81
2024/01/22 06:06:31;;;;;;;2.65;0.80;;;10.20;99.90;;;;;;5245236;22;20019;-81
2024/01/22 06:08:31;;;;;;;1.38;0.70;;;10.20;99.90;;;;;;5245145;22;20015;-81
2024/01/22 06:10:34;;;;;;;8.07;0.77;;;10.20;99.90;;;;;;5245289;22;20472;-81
2024/01/22 06:12:35;;;;;;;7.55;1.00;;;10.30;99.90;;;;;;5245393;22;20010;-80
2024/01/22 06:14:36;;;;;;;5.10;0.80;;;10.20;99.90;;;;;;5222682;22;20539;-80
2024/01/22 06:16:37;;;;;;;11.43;0.90;;;10.30;99.90;;;;;;5246460;22;20463;-80
2024/01/22 06:18:39;;;;;;;1.80;0.80;;;10.10;99.90;;;;;;5217878;22;20022;-81
2024/01/22 06:20:40;;;;;;;0.80;0.55;;;10.20;99.90;;;;;;5245406;22;20472;-81
2024/01/22 06:22:41;;;;;;;3.40;0.63;;;10.30;99.90;;;;;;5245409;22;20010;-81
2024/01/22 06:24:41;;;;;;;4.40;0.77;;;10.10;99.90;;;;;;5245300;22;20026;-81
2024/01/22 06:26:42;;;;;;;2.38;1.33;;;10.30;99.90;;;;;;5245610;22;20025;-82
2024/01/22 06:28:43;;;;;;;2.30;1.02;;;10.40;99.90;;;;;;5217480;22;20104;-80
2024/01/22 06:30:44;;;;;;;3.15;0.70;;;10.30;99.90;;;;;;5217294;22;20068;-80
2024/01/22 06:32:44;;;;;;;2.85;0.70;;;10.30;99.90;;;;;;5245239;22;20014;-80
2024/01/22 06:34:46;;;;;;;1.20;0.50;;;10.40;99.90;;;;;;5244774;22;20018;-81
2024/01/22 06:36:47;;;;;;;4.15;0.90;;;10.30;99.90;;;;;;5245314;22;20017;-81
2024/01/22 06:38:48;;;;;;;1.95;0.70;;;10.30;99.90;;;;;;5245164;22;20085;-81
2024/01/22 06:40:48;;;;;;;9.43;1.65;;;10.30;99.90;;;;;;5244774;22;20112;-81
2024/01/22 06:42:49;;;;;;;4.50;0.65;;;10.30;99.90;;;;;;5245719;22;20010;-81
2024/01/22 06:44:50;;;;;;;1.15;0.52;;;10.20;99.90;;;;;;5217905;22;20027;-81
2024/01/22 06:46:51;;;;;;;6.00;0.90;;;10.20;99.90;;;;;;5247715;22;20014;-81
2024/01/22 06:48:52;;;;;;;4.15;1.15;;;10.00;99.90;;;;;;5246849;22;20023;-81
2024/01/22 06:50:53;;;;;;;5.60;1.60;;;10.20;99.90;;;;;;5245808;22;20014;-81
2024/01/22 06:52:54;;;;;;;2.83;0.90;;;10.40;99.90;;;;;;5258153;22;20044;-80
2024/01/22 06:54:56;;;;;;;8.32;1.42;;;10.10;99.90;;;;;;5247571;22;20086;-80
2024/01/22 06:56:57;;;;;;;8.52;1.10;;;10.40;99.90;;;;;;5245339;22;20442;-80
2024/01/22 06:58:59;;;;;;;10.02;1.55;;;;;;;;;;5247202;22;20015;-81
2024/01/22 07:01:00;;;;;;;2.80;0.82;;;10.00;99.90;;;;;;5222560;22;20433;-81
2024/01/22 07:03:01;;;;;;;8.85;1.58;;;10.00;99.90;;;;;;5246441;22;20022;-82
2024/01/22 07:05:04;;;;;;;6.03;1.20;;;10.00;99.90;;;;;;5245255;22;20015;-81
2024/01/22 07:07:04;;;;;;;4.38;1.05;;;10.00;99.90;;;;;;5246179;22;20015;-81
2024/01/22 07:09:06;;;;;;;5.38;1.17;;;10.00;99.90;;;;;;5245011;22;20015;-82
2024/01/22 07:11:07;;;;;;;15.40;1.70;;;10.00;99.90;;;;;;5245026;22;20011;-82
2024/01/22 07:13:09;;;;;;;8.45;1.63;;;10.00;99.90;;;;;;5217517;22;20016;-81
2024/01/22 07:15:12;;;;;;;9.75;1.40;;;10.10;99.90;;;;;;5191567;22;20023;-81
2024/01/22 07:17:19;;;;;;;7.20;1.73;;;10.00;99.90;;;;;;5244706;22;20089;-81
2024/01/22 07:19:20;;;;;;;11.45;1.63;;;10.00;99.90;;;;;;5244469;22;20025;-82
2024/01/22 07:21:20;;;;;;;10.35;1.92;;;10.00;99.90;;;;;;5245047;22;20341;-81
2024/01/22 07:23:21;;;;;;;13.82;2.65;;;10.10;99.90;;;;;;5244991;22;20026;-82
2024/01/22 07:25:22;;;;;;;18.40;3.50;;;10.00;99.90;;;;;;5245979;22;20010;-82
2024/01/22 07:27:22;;;;;;;18.63;2.60;;;10.00;99.90;;;;;;5245014;22;20014;-82
2024/01/22 07:29:24;;;;;;;12.95;2.60;;;10.00;99.90;;;;;;5245757;22;20014;-81
2024/01/22 07:31:25;;;;;;;20.02;3.55;;;10.00;99.90;;;;;;5217261;22;20039;-82
2024/01/22 07:33:25;;;;;;;19.63;2.53;;;10.00;99.90;;;;;;5245085;22;20015;-82
2024/01/22 07:35:26;;;;;;;11.70;2.17;;;10.00;99.90;;;;;;5245209;22;20022;-81
2024/01/22 07:37:27;;;;;;;8.95;1.75;;;10.10;99.90;;;;;;5245601;22;20526;-81
2024/01/22 07:39:27;;;;;;;18.10;3.03;;;10.10;99.90;;;;;;5218192;22;20418;-82
2024/01/22 07:41:28;;;;;;;19.30;2.60;;;10.10;99.90;;;;;;5245244;22;20025;-82
2024/01/22 07:43:32;;;;;;;18.58;3.17;;;10.10;99.90;;;;;;5244600;22;20076;-82
2024/01/22 07:45:33;;;;;;;20.88;2.88;;;10.10;99.90;;;;;;5245244;22;20014;-81
2024/01/22 07:47:34;;;;;;;19.63;3.63;;;10.20;99.90;;;;;;5245807;22;20086;-81
2024/01/22 07:49:35;;;;;;;23.60;3.85;;;10.30;99.90;;;;;;5243632;22;20014;-81
2024/01/22 07:51:35;;;;;;;27.25;4.63;;;10.30;99.90;;;;;;5244375;22;20018;-81
2024/01/22 07:53:36;;;;;;;30.17;4.10;;;10.00;99.90;;;;;;5244845;22;20015;-81
2024/01/22 07:55:38;;;;;;;28.42;3.47;;;10.40;99.90;;;;;;5244914;22;20090;-81
2024/01/22 07:57:39;;;;;;;14.77;2.90;;;10.10;99.90;;;;;;5217476;22;20056;-81
2024/01/22 07:59:39;;;;;;;22.70;2.70;;;9.80;99.90;;;;;;5244179;22;20056;-81
2024/01/22 08:01:41;;;;;;;15.45;2.00;;;9.80;99.90;;;;;;5245463;22;20015;-81
2024/01/22 08:03:42;;;;;;;5.45;2.08;;;9.70;99.90;;;;;;5244741;22;20040;-81
2024/01/22 08:05:42;;;;;;;8.82;1.85;;;9.70;99.90;;;;;;5244770;22;20064;-81
2024/01/22 08:07:43;;;;;;;8.60;1.58;;;9.60;99.90;;;;;;5244599;22;20014;-84
2024/01/22 08:09:46;;;;;;;4.82;1.20;;;9.80;99.90;;;;;;5244968;22;20014;-82
2024/01/22 08:11:47;;;;;;;11.07;1.25;;;9.70;99.90;;;;;;5244742;22;20046;-83
2024/01/22 08:13:48;;;;;;;7.00;1.50;;;9.60;99.90;;;;;;5247620;22;20059;-83
2024/01/22 08:15:49;;;;;;;7.72;1.08;;;9.60;99.90;;;;;;5220469;22;20023;-83
2024/01/22 08:17:50;;;;;;;5.25;1.25;;;9.50;99.90;;;;;;5247722;22;20018;-85
2024/01/22 08:19:51;;;;;;;13.95;1.60;;;9.50;99.90;;;;;;5247610;22;20050;-84
2024/01/22 08:21:53;;;;;;;6.50;0.95;;;9.50;99.90;;;;;;5220028;22;20019;-83
2024/01/22 08:23:53;;;;;;;7.05;0.98;;;9.40;99.90;;;;;;5246881;22;20014;-83
2024/01/22 08:25:55;;;;;;;9.18;1.48;;;9.30;99.90;;;;;;5219808;22;20449;-83
2024/01/22 08:27:56;;;;;;;1.83;0.90;;;9.40;99.90;;;;;;5220748;22;20347;-83
2024/01/22 08:29:57;;;;;;;4.75;0.93;;;9.30;99.90;;;;;;5246659;22;20170;-82
2024/01/22 08:31:58;;;;;;;9.18;1.25;;;9.40;99.90;;;;;;5247049;22;20026;-83
2024/01/22 08:34:00;;;;;;;5.93;1.33;;;9.30;99.90;;;;;;5246944;22;20350;-83
2024/01/22 08:36:01;;;;;;;8.35;1.50;;;9.80;99.90;;;;;;5247597;22;20019;-84
2024/01/22 08:38:02;;;;;;;7.43;1.60;;;10.40;99.90;;;;;;5219674;22;20083;-83
2024/01/22 08:40:05;;;;;;;11.20;1.52;;;9.70;99.90;;;;;;5247275;22;20418;-83
2024/01/22 08:42:08;;;;;;;13.38;3.10;;;9.70;99.90;;;;;;5246318;22;20011;-83
2024/01/22 08:44:10;;;;;;;18.35;2.85;;;9.60;99.90;;;;;;5247902;22;20022;-83
2024/01/22 08:46:11;;;;;;;21.83;3.15;;;9.40;99.90;;;;;;5247183;22;20029;-84
2024/01/22 08:48:12;;;;;;;16.95;2.65;;;9.40;99.90;;;;;;5247745;22;20341;-84
2024/01/22 08:50:22;;;;;;;16.88;2.40;;;9.40;99.90;;;;;;5247904;22;20095;-83
2024/01/22 08:52:23;;;;;;;22.52;3.30;;;9.40;99.90;;;;;;5246862;22;20319;-84
2024/01/22 08:54:24;;;;;;;14.48;2.53;;;9.40;99.90;;;;;;5247766;22;20092;-83
2024/01/22 08:56:26;;;;;;;30.08;3.08;;;9.30;99.90;;;;;;5247604;22;20477;-83
2024/01/22 08:58:27;;;;;;;23.23;4.35;;;9.40;99.90;;;;;;5247232;22;20021;-83
2024/01/22 09:00:28;;;;;;;18.45;3.33;;;9.40;99.90;;;;;;5247424;22;20010;-84
2024/01/22 09:02:28;;;;;;;25.45;4.75;;;9.30;99.90;;;;;;5246701;22;20068;-83
2024/01/22 09:04:30;;;;;;;19.80;3.20;;;9.30;99.90;;;;;;5218910;22;20088;-83
2024/01/22 09:06:31;;;;;;;20.42;4.15;;;9.30;99.90;;;;;;5219395;22;20055;-84
2024/01/22 09:08:36;;;;;;;25.17;3.30;;;9.30;99.90;;;;;;5247255;22;20019;-82
2024/01/22 09:10:36;;;;;;;29.92;4.88;;;9.30;99.90;;;;;;5247891;22;20318;-83
2024/01/22 09:12:38;;;;;;;30.42;3.67;;;9.30;99.90;;;;;;5247812;22;20021;-82
2024/01/22 09:14:39;;;;;;;33.70;4.25;;;9.40;99.90;;;;;;5219436;22;20019;-84
2024/01/22 09:16:40;;;;;;;27.33;3.05;;;;;;;;;;5246821;22;20037;-83
2024/01/22 09:18:42;;;;;;;29.98;4.10;;;9.50;99.90;;;;;;5246275;22;20018;-82
2024/01/22 09:20:44;;;;;;;42.53;5.43;;;9.50;99.90;;;;;;5245454;22;20091;-83
2024/01/22 09:22:48;;;;;;;42.30;5.97;;;9.60;99.90;;;;;;5246189;22;20011;-82
2024/01/22 09:24:49;;;;;;;35.55;5.65;;;9.40;99.90;;;;;;5218458;22;20029;-83
2024/01/22 09:26:50;;;;;;;37.13;4.55;;;9.60;99.90;;;;;;5245266;22;20007;-82
2024/01/22 09:28:51;;;;;;;38.28;5.72;;;;;;;;;;5245719;22;20064;-82
2024/01/22 09:30:52;;;;;;;26.80;4.97;;;9.50;99.90;;;;;;5218215;22;20026;-83
2024/01/22 09:32:57;;;;;;;36.75;5.70;;;9.50;99.90;;;;;;5245537;22;20021;-82
2024/01/22 09:34:58;;;;;;;41.33;4.95;;;9.60;99.90;;;;;;5218481;22;20011;-82
2024/01/22 09:36:59;;;;;;;32.58;6.18;;;9.80;99.90;;;;;;5245955;22;20143;-82
2024/01/22 09:39:00;;;;;;;32.83;4.63;;;10.30;99.90;;;;;;5245212;22;20018;-83
2024/01/22 09:41:01;;;;;;;35.05;6.57;;;10.40;99.90;;;;;;5218323;22;20012;-82
2024/01/22 09:43:07;;;;;;;37.30;5.32;;;10.30;99.90;;;;;;5245118;22;20030;-83
2024/01/22 09:45:08;;;;;;;28.88;5.10;;;10.40;99.90;;;;;;5245253;22;20023;-82
2024/01/22 09:47:09;;;;;;;37.67;5.93;;;10.70;99.90;;;;;;5245334;22;20176;-83
2024/01/22 09:49:10;;;;;;;28.35;5.68;;;11.10;99.90;;;;;;5246548;22;20403;-83
2024/01/22 09:51:12;;;;;;;41.45;5.07;;;11.40;99.90;;;;;;5246370;22;20019;-82
2024/01/22 09:53:16;;;;;;;26.33;5.50;;;11.60;99.90;;;;;;5245205;22;20021;-83
2024/01/22 09:55:19;;;;;;;28.30;3.80;;;11.70;99.90;;;;;;5246425;22;20337;-84
2024/01/22 09:57:21;;;;;;;20.55;3.70;;;11.50;99.90;;;;;;5246919;22;20053;-83
2024/01/22 09:59:24;;;;;;;22.73;4.40;;;11.50;99.90;;;;;;5247047;22;20022;-83
2024/01/22 10:01:26;;;;;;;30.00;6.72;;;11.90;99.90;;;;;;5247081;22;20144;-83
2024/01/22 10:03:32;;;;;;;20.17;4.07;;;11.60;99.90;;;;;;5246666;22;20015;-84
2024/01/22 10:05:33;;;;;;;27.67;4.28;;;12.10;99.90;;;;;;5246209;22;20022;-84
2024/01/22 10:07:33;;;;;;;25.45;4.20;;;12.10;99.90;;;;;;5246448;22;20014;-83
2024/01/22 10:09:34;;;;;;;24.63;3.67;;;12.10;99.90;;;;;;5247001;22;20019;-84
2024/01/22 10:11:35;;;;;;;21.85;3.80;;;11.70;99.90;;;;;;5246640;22;20014;-84
2024/01/22 10:13:52;;;;;;;23.10;4.63;;;11.50;99.90;;;;;;5246823;22;20095;-84
2024/01/22 10:15:53;;;;;;;22.30;3.67;;;11.60;99.90;;;;;;5246767;22;20015;-84
2024/01/22 10:18:05;;;;;;;25.98;4.20;;;11.50;99.90;;;;;;5246415;22;20023;-84
2024/01/22 10:20:07;;;;;;;20.08;4.10;;;11.60;99.90;;;;;;5246786;22;20022;-83
2024/01/22 10:22:08;;;;;;;24.08;5.18;;;11.50;99.90;;;;;;5247019;22;20115;-83
2024/01/22 10:24:10;;;;;;;20.88;3.22;;;11.50;99.90;;;;;;5219287;22;20019;-83
2024/01/22 10:26:11;;;;;;;24.58;3.45;;;11.50;99.90;;;;;;5247032;22;20047;-83
2024/01/22 10:28:17;;;;;;;30.83;5.22;;;11.60;99.90;;;;;;5218910;22;20030;-84
2024/01/22 10:30:17;;;;;;;29.38;4.10;;;11.50;99.90;;;;;;5247151;22;20011;-84
2024/01/22 10:32:24;;;;;;;26.45;4.45;;;11.60;99.90;;;;;;5193451;22;20058;-84
2024/01/22 10:34:50;;;;;;;39.72;5.10;;;11.60;99.90;;;;;;5193015;22;20020;-83
2024/01/22 10:37:08;;;;;;;17.83;4.05;;;11.60;99.90;;;;;;5218022;22;20019;-84